Terminal Aerodrome Forecast
Issued by NWS Cleveland, OH

Home | Current Version | Previous Version | Graphics & Text | Print | Product List | Glossary Off
Versions: 1 2 3 4 5 6 7 8 9 10 11 12 13 14 15 16 17

949
FTUS41 KCLE 291722
TAFTOL
TAF
KTOL 291722Z 2918/3018 07010KT P6SM VCTS BKN040CB BKN100
      TEMPO 2922/3002 2SM TSRA OVC030CB
     FM300200 06008KT P6SM VCSH BKN025 OVC050
     FM301000 03004KT 3SM BR BKN015
     FM301400 03005KT P6SM SCT025 BKN040=

USA.gov is the U.S. government's official web portal to all federal, state and local government web resources and services.